Time;durP1;ratioP1;P1;durP2;ratioP2;P2;SDS_P1;SDS_P2;PMS_P1;PMS_P2;Temp;Humidity;BMP_temperature;BMP_pressure;BME280_temperature;BME280_humidity;BME280_pressure;Samples;Min_cycle;Max_cycle;Signal;HPM_P1;HPM_P2
2022/01/11 00:01:48;;;;;;;19.60;8.65;;;;;;;4.78;60.79;102615.50;5046245;28;20421;-81
2022/01/11 00:04:17;;;;;;;15.52;8.07;;;;;;;4.79;60.18;102619.84;5028123;28;20068;-81
2022/01/11 00:06:48;;;;;;;18.45;8.80;;;;;;;5.10;59.45;102619.06;5026440;28;20409;-81
2022/01/11 00:09:30;;;;;;;17.98;8.55;;;;;;;4.71;60.15;102622.16;5042143;28;20116;-81
2022/01/11 00:11:55;;;;;;;15.40;8.25;;;;;;;4.68;60.95;102628.88;5044991;28;20032;-81
2022/01/11 00:14:21;;;;;;;16.58;8.75;;;;;;;4.89;59.98;102627.00;5043272;28;20388;-81
2022/01/11 00:16:46;;;;;;;16.27;8.50;;;;;;;4.96;60.10;102631.53;5027417;28;20065;-81
2022/01/11 00:19:14;;;;;;;15.82;8.05;;;;;;;5.05;59.16;102623.22;5044677;28;20029;-81
2022/01/11 00:21:45;;;;;;;15.82;7.55;;;;;;;4.90;60.39;102627.06;5050576;28;20040;-81
2022/01/11 00:24:30;;;;;;;14.40;7.13;;;;;;;5.20;59.15;102622.00;5035926;28;20052;-80
2022/01/11 00:27:01;;;;;;;16.30;7.40;;;;;;;4.99;59.00;102626.47;5052444;28;20375;-81
2022/01/11 00:29:28;;;;;;;16.40;7.30;;;;;;;5.09;59.45;102630.22;5042370;28;20040;-81
2022/01/11 00:31:56;;;;;;;13.95;7.45;;;;;;;5.11;58.89;102624.28;5044002;28;20559;-81
2022/01/11 00:34:23;;;;;;;16.20;7.07;;;;;;;5.10;58.76;102617.38;5043846;28;20029;-81
2022/01/11 00:36:49;;;;;;;17.70;7.72;;;;;;;5.05;59.23;102625.81;5044437;28;20048;-81
2022/01/11 00:39:14;;;;;;;13.57;6.75;;;;;;;5.08;59.85;102642.22;5027275;28;20037;-81
2022/01/11 00:41:42;;;;;;;16.65;7.45;;;;;;;4.82;59.63;102648.25;5048360;28;20115;-81
2022/01/11 00:44:07;;;;;;;15.35;6.97;;;;;;;5.05;59.16;102636.97;5037894;28;20051;-81
2022/01/11 00:46:33;;;;;;;14.32;6.68;;;;;;;5.12;59.68;102641.47;5047041;28;20525;-81
2022/01/11 00:48:59;;;;;;;13.65;6.55;;;;;;;4.98;59.38;102641.88;5012238;28;20047;-81
2022/01/11 00:51:24;;;;;;;14.13;7.70;;;;;;;4.93;58.99;102646.88;5050509;28;20037;-81
2022/01/11 00:53:50;;;;;;;14.80;6.90;;;;;;;4.83;59.70;102657.72;5024780;28;20480;-81
2022/01/11 00:56:15;;;;;;;14.70;7.15;;;;;;;4.60;59.76;102654.38;5052238;28;20025;-81
2022/01/11 00:58:41;;;;;;;16.92;8.00;;;;;;;5.10;59.51;102656.03;5045009;28;20041;-81
2022/01/11 01:01:07;;;;;;;18.00;8.35;;;;;;;5.23;59.67;102653.00;5047266;28;20033;-81
2022/01/11 01:03:33;;;;;;;15.35;7.38;;;;;;;5.04;59.14;102650.66;5047395;28;20037;-81
2022/01/11 01:05:59;;;;;;;18.52;9.70;;;;;;;5.05;59.51;102665.31;5039726;28;20157;-81
2022/01/11 01:08:25;;;;;;;18.05;8.15;;;;;;;5.08;59.58;102654.22;5030230;28;20533;-81
2022/01/11 01:10:50;;;;;;;18.80;8.57;;;;;;;5.14;59.39;102647.56;5042779;28;20033;-81
2022/01/11 01:13:22;;;;;;;19.95;8.48;;;;;;;5.11;59.39;102647.47;5030469;28;20037;-81
2022/01/11 01:15:50;;;;;;;16.75;7.93;;;;;;;4.66;60.42;102657.16;5041373;28;20037;-81
2022/01/11 01:18:22;;;;;;;17.58;8.35;;;;;;;5.05;59.38;102659.28;5042679;28;20033;-81
2022/01/11 01:20:52;;;;;;;16.63;8.23;;;;;;;4.98;60.19;102653.06;5022776;28;20437;-81
2022/01/11 01:23:18;;;;;;;14.48;7.65;;;;;;;4.98;59.17;102655.63;5042187;28;20065;-81
2022/01/11 01:25:45;;;;;;;17.35;8.60;;;;;;;5.02;59.57;102659.19;5044878;28;20134;-81
2022/01/11 01:28:11;;;;;;;15.63;7.85;;;;;;;4.83;60.95;102666.31;5033719;28;20071;-81
2022/01/11 01:30:37;;;;;;;15.70;8.07;;;;;;;4.90;59.80;102672.53;5045372;28;20108;-81
2022/01/11 01:33:03;;;;;;;16.63;8.57;;;;;;;4.75;60.49;102664.31;5045773;28;20642;-81
2022/01/11 01:35:34;;;;;;;16.00;8.23;;;;;;;4.80;60.02;102660.19;5036754;28;20036;-81
2022/01/11 01:38:00;;;;;;;20.80;9.10;;;;;;;4.83;59.89;102670.59;5052281;28;20021;-81
2022/01/11 01:40:26;;;;;;;16.52;7.60;;;;;;;4.88;59.73;102674.22;5042072;28;20060;-81
2022/01/11 01:42:52;;;;;;;17.73;8.20;;;;;;;4.82;59.83;102677.44;5045514;28;20036;-81
2022/01/11 01:45:23;;;;;;;17.15;8.73;;;;;;;5.03;59.57;102676.41;5044169;28;20049;-81
2022/01/11 01:47:52;;;;;;;15.18;7.97;;;;;;;5.04;59.65;102675.56;5050422;28;20052;-81
2022/01/11 01:50:18;;;;;;;19.85;8.77;;;;;;;5.01;59.37;102671.19;5038112;28;20055;-78
2022/01/11 01:52:44;;;;;;;17.73;7.75;;;;;;;4.86;59.92;102683.56;5023291;28;20025;-81
2022/01/11 01:55:10;;;;;;;16.40;8.02;;;;;;;5.00;59.10;102678.88;5049918;28;20505;-81
2022/01/11 01:57:36;;;;;;;17.30;8.05;;;;;;;4.85;59.95;102680.09;5026569;28;20051;-81
2022/01/11 02:00:11;;;;;;;18.88;8.45;;;;;;;4.71;59.96;102689.06;5045186;28;20571;-81
2022/01/11 02:02:36;;;;;;;17.77;8.35;;;;;;;4.74;60.58;102690.88;5052076;28;20029;-81
2022/01/11 02:05:03;;;;;;;18.20;8.05;;;;;;;4.71;60.61;102691.66;5047342;28;20025;-81
2022/01/11 02:07:28;;;;;;;16.98;8.15;;;;;;;4.76;60.11;102697.81;5043704;28;20382;-81
2022/01/11 02:09:53;;;;;;;16.92;7.47;;;;;;;4.84;60.49;102695.53;5050521;28;20067;-81
2022/01/11 02:12:19;;;;;;;16.75;8.25;;;;;;;5.02;59.04;102693.53;5053640;28;20080;-81
2022/01/11 02:14:45;;;;;;;16.23;7.97;;;;;;;4.78;59.99;102693.63;5021685;28;20064;-81
2022/01/11 02:17:10;;;;;;;16.52;8.02;;;;;;;4.88;59.82;102694.81;5015951;28;20497;-81
2022/01/11 02:19:36;;;;;;;16.20;7.43;;;;;;;4.82;59.86;102695.44;5047416;28;20389;-81
2022/01/11 02:22:01;;;;;;;15.77;7.97;;;;;;;5.03;58.81;102694.44;5026009;28;20146;-81
2022/01/11 02:24:28;;;;;;;13.68;7.10;;;;;;;4.79;59.82;102697.91;5043423;28;20075;-81
2022/01/11 02:26:54;;;;;;;19.55;8.30;;;;;;;4.72;60.09;102701.13;5027645;28;20041;-81
2022/01/11 02:29:20;;;;;;;13.75;7.63;;;;;;;5.02;59.21;102701.28;5050960;28;20048;-81
2022/01/11 02:31:45;;;;;;;16.38;7.70;;;;;;;4.88;59.28;102702.53;5031703;28;20499;-81
2022/01/11 02:34:11;;;;;;;16.48;7.57;;;;;;;4.72;60.24;102701.13;5050236;28;20037;-81
2022/01/11 02:36:37;;;;;;;17.55;8.30;;;;;;;4.66;60.19;102702.63;5050307;28;20045;-81
2022/01/11 02:39:03;;;;;;;14.80;7.18;;;;;;;4.98;59.62;102708.84;5050137;28;20595;-81
2022/01/11 02:41:30;;;;;;;15.63;7.43;;;;;;;4.76;59.88;102709.84;5046323;28;20036;-79
2022/01/11 02:43:57;;;;;;;14.15;7.20;;;;;;;5.04;59.12;102716.75;5049537;28;20090;-79
2022/01/11 02:46:23;;;;;;;14.10;7.20;;;;;;;4.95;59.20;102713.88;5029480;28;20037;-79
2022/01/11 02:48:51;;;;;;;13.95;7.13;;;;;;;4.48;60.38;102713.16;5049381;28;20037;-78
2022/01/11 02:51:17;;;;;;;17.05;7.13;;;;;;;4.71;59.08;102711.38;5042481;28;20071;-79
2022/01/11 02:53:48;;;;;;;14.45;7.22;;;;;;;4.81;59.26;102718.59;5047532;28;20040;-79
2022/01/11 02:56:15;;;;;;;17.10;7.35;;;;;;;4.95;59.22;102717.34;5045282;28;20119;-79
2022/01/11 02:58:41;;;;;;;13.82;6.55;;;;;;;4.87;59.38;102726.53;5044880;28;20041;-79
2022/01/11 03:01:08;;;;;;;16.08;6.80;;;;;;;4.67;59.90;102725.81;5037823;28;20029;-79
2022/01/11 03:03:34;;;;;;;14.80;6.40;;;;;;;4.38;60.19;102733.38;5042320;28;20029;-79
2022/01/11 03:06:02;;;;;;;15.90;7.80;;;;;;;4.57;59.69;102738.34;5034766;28;20045;-79
2022/01/11 03:08:31;;;;;;;16.42;7.00;;;;;;;4.64;59.14;102741.19;5040858;28;20032;-79
2022/01/11 03:10:57;;;;;;;12.57;7.03;;;;;;;4.45;60.00;102743.94;5042346;28;20024;-79
2022/01/11 03:13:23;;;;;;;11.82;6.50;;;;;;;4.63;59.73;102741.13;5046852;28;20052;-79
2022/01/11 03:15:53;;;;;;;15.57;7.07;;;;;;;4.43;60.32;102737.88;5045404;28;20037;-79
2022/01/11 03:18:19;;;;;;;12.82;6.93;;;;;;;4.56;61.11;102744.31;5051992;28;20037;-79
2022/01/11 03:20:46;;;;;;;14.30;6.75;;;;;;;4.61;60.90;102743.66;5050466;28;20037;-79
2022/01/11 03:23:14;;;;;;;15.77;8.00;;;;;;;4.82;59.78;102746.94;5042891;28;20054;-79
2022/01/11 03:25:40;;;;;;;14.25;7.45;;;;;;;4.65;59.80;102747.19;5045187;28;20044;-79
2022/01/11 03:28:06;;;;;;;14.38;7.90;;;;;;;4.63;60.10;102748.84;5050383;28;20044;-79
2022/01/11 03:30:32;;;;;;;15.77;7.80;;;;;;;4.84;59.70;102742.75;5050355;28;20390;-79
2022/01/11 03:32:58;;;;;;;15.55;8.02;;;;;;;4.56;61.02;102752.91;5045769;28;20094;-79
2022/01/11 03:35:24;;;;;;;16.52;7.55;;;;;;;4.66;60.16;102744.69;5045273;28;20491;-79
2022/01/11 03:37:51;;;;;;;15.50;6.97;;;;;;;4.50;59.83;102754.38;5023675;28;20037;-79
2022/01/11 03:40:19;;;;;;;15.15;7.72;;;;;;;4.82;59.80;102749.53;5045940;28;20032;-79
2022/01/11 03:42:45;;;;;;;16.92;7.97;;;;;;;4.91;59.29;102747.25;5041545;28;20033;-79
2022/01/11 03:45:12;;;;;;;15.90;7.65;;;;;;;4.62;59.94;102750.53;5036110;28;20068;-79
2022/01/11 03:47:38;;;;;;;16.70;7.88;;;;;;;4.54;60.64;102751.09;5025747;28;20036;-79
2022/01/11 03:50:05;;;;;;;13.80;6.72;;;;;;;4.28;60.69;102755.34;5044017;28;20097;-79
2022/01/11 03:52:31;;;;;;;16.50;7.78;;;;;;;4.65;59.95;102754.91;5041919;28;20033;-79
2022/01/11 03:57:24;;;;;;;14.77;7.00;;;;;;;4.54;59.49;102751.09;5029827;28;20033;-79
2022/01/11 03:59:50;;;;;;;18.40;7.90;;;;;;;4.51;60.64;102756.13;5048100;28;20036;-79
2022/01/11 04:02:15;;;;;;;15.85;7.78;;;;;;;4.63;59.95;102746.28;5033266;28;20443;-79
2022/01/11 04:04:41;;;;;;;16.35;7.70;;;;;;;4.44;60.15;102742.19;5045647;28;20811;-79
2022/01/11 04:07:07;;;;;;;16.65;7.72;;;;;;;4.63;59.38;102744.59;5047758;28;20052;-79
2022/01/11 04:09:32;;;;;;;14.65;7.57;;;;;;;4.68;59.77;102743.03;5052258;28;20062;-81
2022/01/11 04:11:58;;;;;;;15.30;7.53;;;;;;;4.61;59.46;102735.94;5046113;28;20524;-81
2022/01/11 04:14:26;;;;;;;14.95;7.72;;;;;;;4.64;58.89;102746.34;5045539;28;20063;-81
2022/01/11 04:16:53;;;;;;;14.63;7.70;;;;;;;4.56;59.01;102739.16;5023520;28;20545;-81
2022/01/11 04:19:21;;;;;;;16.67;7.97;;;;;;;4.39;60.19;102746.28;5044128;28;20052;-81
2022/01/11 04:21:48;;;;;;;16.40;7.72;;;;;;;4.29;60.27;102746.78;5043026;28;20107;-81
2022/01/11 04:24:14;;;;;;;18.63;7.68;;;;;;;4.50;60.25;102749.22;5050621;28;20040;-81
2022/01/11 04:26:40;;;;;;;16.23;7.13;;;;;;;4.51;59.52;102745.84;5044758;28;20053;-81
2022/01/11 04:29:06;;;;;;;14.35;6.40;;;;;;;4.48;60.29;102743.16;5049014;28;20546;-81
2022/01/11 04:31:32;;;;;;;16.40;6.88;;;;;;;4.52;60.22;102743.34;5042936;28;20036;-81
2022/01/11 04:33:57;;;;;;;19.67;7.88;;;;;;;4.44;60.17;102749.00;5049606;28;20029;-81
2022/01/11 04:36:23;;;;;;;17.00;7.97;;;;;;;4.68;59.18;102749.88;5044341;28;20430;-81
2022/01/11 04:38:49;;;;;;;15.95;8.05;;;;;;;4.81;58.94;102760.66;5052142;28;20029;-81
2022/01/11 04:41:15;;;;;;;14.73;7.03;;;;;;;4.50;59.20;102756.94;5048330;28;20505;-81
2022/01/11 04:43:41;;;;;;;15.25;6.72;;;;;;;4.64;59.21;102753.19;5049316;28;20715;-81
2022/01/11 04:46:06;;;;;;;15.57;7.30;;;;;;;4.38;58.79;102756.53;5042636;28;20041;-81
2022/01/11 04:48:32;;;;;;;16.92;7.20;;;;;;;4.37;59.78;102759.94;5039073;28;20047;-81
2022/01/11 04:51:04;;;;;;;17.17;8.13;;;;;;;4.54;59.90;102761.41;5042903;28;20037;-81
2022/01/11 04:53:30;;;;;;;15.00;7.28;;;;;;;4.71;58.85;102756.00;5041665;28;20033;-81
2022/01/11 04:55:56;;;;;;;15.80;7.15;;;;;;;4.73;58.28;102758.66;5043108;28;20040;-81
2022/01/11 04:58:22;;;;;;;13.23;7.13;;;;;;;4.48;58.94;102756.91;5047823;28;20033;-81
2022/01/11 05:00:48;;;;;;;15.55;7.13;;;;;;;4.50;58.72;102762.97;5043464;28;20025;-81
2022/01/11 05:03:14;;;;;;;13.88;6.68;;;;;;;4.29;59.42;102770.81;5046019;28;20132;-81
2022/01/11 05:05:40;;;;;;;15.45;6.70;;;;;;;4.20;59.25;102767.91;5045696;28;20132;-81
2022/01/11 05:08:05;;;;;;;14.68;7.38;;;;;;;4.28;59.17;102770.75;5041699;28;20389;-81
2022/01/11 05:10:31;;;;;;;15.18;6.82;;;;;;;4.52;59.22;102770.78;5042885;28;20533;-81
2022/01/11 05:12:57;;;;;;;15.48;7.78;;;;;;;4.29;60.29;102772.50;5036123;28;20097;-81
2022/01/11 05:15:25;;;;;;;16.40;7.00;;;;;;;4.70;59.28;102767.13;5024320;28;20033;-81
2022/01/11 05:17:51;;;;;;;15.00;7.72;;;;;;;4.40;59.79;102775.47;5034809;28;20045;-81
2022/01/11 05:20:17;;;;;;;14.77;7.45;;;;;;;4.37;60.74;102785.66;5051394;28;20107;-81
2022/01/11 05:22:45;;;;;;;19.40;6.88;;;;;;;4.33;60.09;102775.25;5048717;28;20433;-81
2022/01/11 05:25:13;;;;;;;15.68;7.55;;;;;;;4.71;59.03;102783.44;5039605;28;20045;-81
2022/01/11 05:27:39;;;;;;;15.48;7.30;;;;;;;4.61;59.44;102776.25;5048976;28;20051;-81
2022/01/11 05:30:06;;;;;;;16.17;7.80;;;;;;;4.42;59.81;102785.00;5044909;28;20045;-81
2022/01/11 05:32:32;;;;;;;19.40;7.45;;;;;;;4.67;58.52;102784.19;5049092;28;20051;-81
2022/01/11 05:34:58;;;;;;;13.85;7.00;;;;;;;4.25;59.74;102786.09;5060539;28;20033;-81
2022/01/11 05:37:23;;;;;;;17.50;7.45;;;;;;;4.48;59.46;102789.47;5043997;28;20036;-81
2022/01/11 05:39:51;;;;;;;15.68;7.72;;;;;;;4.41;59.84;102784.94;5049335;28;20048;-81
2022/01/11 05:42:16;;;;;;;13.23;7.20;;;;;;;4.22;60.39;102791.13;5044077;28;20033;-81
2022/01/11 05:44:42;;;;;;;17.15;6.82;;;;;;;4.31;60.20;102796.59;5036373;28;20422;-81
2022/01/11 05:47:07;;;;;;;14.30;7.22;;;;;;;4.69;59.19;102790.25;5027832;28;20041;-81
2022/01/11 05:49:33;;;;;;;19.25;8.10;;;;;;;4.58;59.73;102789.88;5052061;28;20033;-81
2022/01/11 05:51:58;;;;;;;16.75;8.20;;;;;;;4.60;59.85;102792.50;5045765;28;20136;-81
2022/01/11 05:54:24;;;;;;;15.35;7.07;;;;;;;4.46;59.70;102793.72;5047821;28;20028;-81
2022/01/11 05:56:50;;;;;;;16.05;7.13;;;;;;;4.50;59.27;102800.69;5046180;28;20045;-81
2022/01/11 05:59:15;;;;;;;16.33;7.53;;;;;;;4.61;58.88;102802.00;5047532;28;20052;-81
2022/01/11 06:01:41;;;;;;;15.35;6.55;;;;;;;4.55;59.51;102804.34;5042787;28;20448;-81
2022/01/11 06:04:06;;;;;;;15.82;6.65;;;;;;;4.49;58.94;102807.56;5050340;28;20034;-81
2022/01/11 06:06:32;;;;;;;19.95;8.45;;;;;;;4.35;59.71;102809.63;5033869;28;20029;-81
2022/01/11 06:09:00;;;;;;;16.45;7.25;;;;;;;4.30;59.73;102802.56;5041005;28;20040;-81
2022/01/11 06:11:26;;;;;;;14.20;7.32;;;;;;;4.21;60.27;102807.34;5035587;28;20090;-81
2022/01/11 06:13:51;;;;;;;16.65;7.82;;;;;;;4.46;59.55;102815.19;5035234;28;20033;-81
2022/01/11 06:16:17;;;;;;;19.00;8.45;;;;;;;4.13;59.95;102812.22;5043790;28;20037;-81
2022/01/11 06:18:45;;;;;;;15.65;6.88;;;;;;;4.21;60.13;102817.66;5031562;28;20494;-81
2022/01/11 06:21:11;;;;;;;18.63;7.80;;;;;;;4.33;59.30;102825.81;5023396;28;20044;-81
2022/01/11 06:23:36;;;;;;;18.13;8.50;;;;;;;4.24;60.02;102823.78;5045336;28;20060;-81
2022/01/11 06:26:02;;;;;;;18.48;8.38;;;;;;;4.30;59.95;102818.88;5035373;28;20045;-81
2022/01/11 06:28:27;;;;;;;17.98;8.43;;;;;;;4.19;60.65;102820.19;5045660;28;20669;-81
2022/01/11 06:30:53;;;;;;;15.57;7.70;;;;;;;4.31;60.32;102819.75;5046538;28;20060;-81
2022/01/11 06:33:20;;;;;;;18.35;8.05;;;;;;;4.53;59.08;102817.13;5036140;28;20036;-81
2022/01/11 06:35:45;;;;;;;19.55;7.82;;;;;;;4.29;60.37;102822.25;5021085;28;20037;-81
2022/01/11 06:38:11;;;;;;;20.83;8.90;;;;;;;4.24;60.98;102825.47;5049141;28;20498;-81
2022/01/11 06:40:36;;;;;;;19.77;7.95;;;;;;;4.09;61.10;102830.94;5049170;28;20047;-81
2022/01/11 06:43:02;;;;;;;17.33;7.95;;;;;;;4.12;60.71;102825.91;5050019;28;20049;-81
2022/01/11 06:45:28;;;;;;;19.15;8.43;;;;;;;4.09;60.79;102832.63;5046115;28;20036;-81
2022/01/11 06:47:54;;;;;;;19.15;7.72;;;;;;;3.97;61.25;102843.28;5031214;28;20402;-81
2022/01/11 06:50:26;;;;;;;23.17;8.40;;;;;;;4.28;60.80;102840.22;5028436;28;20029;-81
2022/01/11 06:52:51;;;;;;;24.17;9.25;;;;;;;4.02;60.50;102841.75;5026170;28;20487;-81
2022/01/11 06:55:19;;;;;;;18.25;9.10;;;;;;;4.00;60.96;102845.97;5037454;28;20041;-81
2022/01/11 06:57:45;;;;;;;17.15;8.80;;;;;;;4.09;60.79;102845.47;5030556;28;20116;-81
2022/01/11 07:00:11;;;;;;;21.77;8.43;;;;;;;4.07;61.20;102853.16;5029596;28;20127;-81
2022/01/11 07:02:36;;;;;;;19.65;8.13;;;;;;;4.11;61.03;102855.00;5029829;28;20417;-81
2022/01/11 07:05:02;;;;;;;22.88;9.55;;;;;;;4.09;60.48;102851.50;5047695;28;20025;-81
2022/01/11 07:07:27;;;;;;;19.23;8.95;;;;;;;4.30;60.39;102856.59;5034989;28;20060;-81
2022/01/11 07:09:53;;;;;;;28.77;8.30;;;;;;;4.01;61.71;102864.84;5042729;28;20972;-81
2022/01/11 07:12:18;;;;;;;22.65;10.00;;;;;;;4.27;61.39;102861.63;5048000;28;20227;-81
2022/01/11 07:14:44;;;;;;;22.63;9.55;;;;;;;4.04;61.41;102863.28;5042987;28;20493;-81
2022/01/11 07:17:09;;;;;;;51.92;19.70;;;;;;;4.67;59.22;102866.56;5028671;28;20028;-81
2022/01/11 07:19:35;;;;;;;31.58;13.90;;;;;;;4.26;60.16;102883.00;5042442;28;20044;-81
2022/01/11 07:22:00;;;;;;;25.88;11.90;;;;;;;4.18;60.31;102880.16;5014722;28;20072;-81
2022/01/11 07:24:27;;;;;;;24.35;10.23;;;;;;;4.51;59.14;102883.13;5044797;28;22216;-81
2022/01/11 07:26:53;;;;;;;22.05;14.23;;;;;;;4.50;59.10;102880.47;5044854;28;20124;-82
2022/01/11 07:29:19;;;;;;;19.58;9.98;;;;;;;4.05;60.35;102884.72;5045928;28;20025;-81
2022/01/11 07:31:45;;;;;;;19.20;9.05;;;;;;;4.10;61.42;102888.38;5030680;28;20103;-81
2022/01/11 07:34:10;;;;;;;16.27;7.78;;;;;;;4.14;60.75;102883.41;5030513;28;20057;-81
2022/01/11 07:36:37;;;;;;;19.25;9.13;;;;;;;4.20;60.45;102891.38;5027703;28;20045;-81
2022/01/11 07:39:05;;;;;;;20.83;8.75;;;;;;;4.53;58.89;102886.63;5046196;28;20124;-81
2022/01/11 07:41:30;;;;;;;22.33;8.85;;;;;;;4.55;58.77;102894.41;5044101;28;20041;-81
2022/01/11 07:43:56;;;;;;;17.98;8.05;;;;;;;4.34;59.27;102895.38;5044812;28;20035;-81
2022/01/11 07:46:23;;;;;;;19.20;7.72;;;;;;;4.40;58.76;102905.00;5029950;28;20041;-81
2022/01/11 07:48:48;;;;;;;21.90;7.32;;;;;;;4.37;59.00;102904.91;5046570;28;20090;-81
2022/01/11 07:51:14;;;;;;;19.70;8.10;;;;;;;4.41;58.74;102909.31;5037424;28;20498;-82
2022/01/11 07:53:39;;;;;;;18.85;9.43;;;;;;;4.45;59.13;102898.34;5040033;28;20742;-82
2022/01/11 07:56:06;;;;;;;16.95;8.45;;;;;;;4.41;58.48;102898.16;5048471;28;20057;-82
2022/01/11 07:58:32;;;;;;;19.60;8.32;;;;;;;4.21;60.31;102907.69;5040874;28;20037;-82
2022/01/11 08:00:57;;;;;;;17.70;7.90;;;;;;;4.30;59.81;102902.91;5039453;28;20037;-82
2022/01/11 08:03:23;;;;;;;20.10;9.40;;;;;;;4.46;58.81;102896.66;5044416;28;20056;-82
2022/01/11 08:05:49;;;;;;;21.13;8.02;;;;;;;4.35;59.10;102903.94;5036808;28;20576;-82
2022/01/11 08:08:14;;;;;;;18.60;8.85;;;;;;;4.34;59.44;102900.50;5041685;28;20053;-82
2022/01/11 08:10:40;;;;;;;15.38;7.22;;;;;;;4.39;59.29;102910.09;5032240;28;20182;-82
2022/01/11 08:13:08;;;;;;;21.05;9.07;;;;;;;4.61;59.04;102904.94;5037901;28;20099;-82
2022/01/11 08:15:34;;;;;;;18.13;7.28;;;;;;;4.25;59.89;102915.59;5044258;28;20390;-82
2022/01/11 08:18:00;;;;;;;21.50;7.93;;;;;;;4.58;58.83;102905.72;5042788;28;20037;-82
2022/01/11 08:20:25;;;;;;;16.65;7.07;;;;;;;4.38;58.96;102904.06;5047033;28;20652;-82
2022/01/11 08:22:53;;;;;;;20.17;8.00;;;;;;;4.23;59.94;102913.75;5049547;28;20527;-82
2022/01/11 08:25:19;;;;;;;16.60;6.82;;;;;;;4.55;58.36;102912.44;5046037;28;20087;-82
2022/01/11 08:27:44;;;;;;;16.00;6.95;;;;;;;4.49;58.95;102917.34;5048999;28;20052;-82
2022/01/11 08:30:10;;;;;;;20.70;7.72;;;;;;;4.52;59.46;102917.47;5046850;28;20087;-82
2022/01/11 08:32:36;;;;;;;18.98;8.05;;;;;;;4.20;59.95;102916.22;5045362;28;20041;-82
2022/01/11 08:35:02;;;;;;;14.73;7.88;;;;;;;4.53;59.01;102912.34;5046468;28;20397;-82
2022/01/11 08:37:27;;;;;;;17.45;7.57;;;;;;;4.53;59.23;102912.34;5040324;28;20394;-82
2022/01/11 08:39:53;;;;;;;17.30;7.18;;;;;;;4.62;58.58;102916.97;5030655;28;20029;-82
2022/01/11 08:42:18;;;;;;;16.52;7.45;;;;;;;4.50;59.30;102929.38;5028067;28;20032;-82
2022/01/11 08:44:46;;;;;;;15.43;7.15;;;;;;;4.33;60.45;102928.75;5038974;28;20029;-82
2022/01/11 08:47:13;;;;;;;20.55;9.18;;;;;;;4.07;60.44;102932.88;5017276;28;20124;-82
2022/01/11 08:49:38;;;;;;;16.02;7.53;;;;;;;4.27;59.85;102924.25;5042698;28;20033;-82
2022/01/11 08:52:05;;;;;;;17.55;8.38;;;;;;;4.13;59.87;102930.53;5053922;28;20056;-81
2022/01/11 08:54:30;;;;;;;19.35;8.20;;;;;;;4.27;60.14;102933.66;5051312;28;20049;-81
2022/01/11 08:56:56;;;;;;;12.95;6.65;;;;;;;4.59;59.19;102929.72;5048227;28;20083;-82
2022/01/11 08:59:25;;;;;;;18.92;8.63;;;;;;;4.15;60.15;102934.03;5055441;28;20036;-81
2022/01/11 09:01:52;;;;;;;19.30;7.63;;;;;;;4.30;59.79;102926.06;5035636;28;20040;-82
2022/01/11 09:04:18;;;;;;;14.38;6.68;;;;;;;4.30;60.35;102931.19;5053930;28;20098;-82
2022/01/11 09:06:43;;;;;;;17.95;6.95;;;;;;;4.29;59.76;102929.44;5042237;28;20489;-82
2022/01/11 09:09:10;;;;;;;13.82;6.47;;;;;;;4.42;59.79;102934.25;5058980;28;20048;-81
2022/01/11 09:11:35;;;;;;;16.20;7.35;;;;;;;4.59;59.18;102932.31;5036133;28;20083;-82
2022/01/11 09:14:01;;;;;;;16.48;7.68;;;;;;;4.56;59.27;102932.19;5052262;28;20025;-82
2022/01/11 09:16:27;;;;;;;17.42;7.70;;;;;;;4.58;59.33;102928.88;5044452;28;20025;-82
2022/01/11 09:18:53;;;;;;;16.05;6.85;;;;;;;4.50;59.31;102929.38;5049258;28;20116;-82
2022/01/11 09:21:20;;;;;;;18.55;8.15;;;;;;;4.35;59.60;102929.66;5034053;28;20681;-82
2022/01/11 09:23:49;;;;;;;14.43;7.13;;;;;;;4.61;59.30;102926.41;5052563;28;20106;-82
2022/01/11 09:26:15;;;;;;;16.13;6.97;;;;;;;4.67;59.94;102929.19;5051435;28;20501;-81
2022/01/11 09:28:41;;;;;;;16.90;8.00;;;;;;;4.24;60.77;102938.66;5035523;28;20094;-82
2022/01/11 09:31:07;;;;;;;18.92;8.27;;;;;;;4.63;59.14;102934.19;5052869;28;20041;-82
2022/01/11 09:33:34;;;;;;;19.83;7.57;;;;;;;4.57;59.40;102941.66;5036399;28;20041;-82
2022/01/11 09:36:00;;;;;;;18.23;8.35;;;;;;;4.56;59.64;102940.78;5051324;28;20043;-82
2022/01/11 09:38:27;;;;;;;16.63;6.80;;;;;;;4.80;59.06;102943.41;5054732;28;20129;-82
2022/01/11 09:40:55;;;;;;;14.40;6.82;;;;;;;4.42;60.14;102944.53;5046728;28;20029;-81
2022/01/11 09:43:23;;;;;;;16.92;6.72;;;;;;;4.47;60.24;102942.13;5049450;28;20033;-81
2022/01/11 09:45:50;;;;;;;17.38;7.50;;;;;;;4.71;59.06;102936.22;5053670;28;20032;-81
2022/01/11 09:48:20;;;;;;;15.57;7.75;;;;;;;4.67;59.71;102933.50;5035860;28;20076;-82
2022/01/11 09:50:46;;;;;;;16.08;7.80;;;;;;;4.64;59.71;102939.41;5030895;28;20067;-82
2022/01/11 09:53:12;;;;;;;18.02;8.10;;;;;;;4.78;59.16;102930.50;5052324;28;20053;-82
2022/01/11 09:55:38;;;;;;;18.08;7.45;;;;;;;4.54;61.26;102937.28;5043091;28;20173;-82
2022/01/11 09:58:05;;;;;;;15.95;7.63;;;;;;;4.73;59.76;102939.72;5055989;28;20540;-81
2022/01/11 10:00:31;;;;;;;13.93;6.53;;;;;;;4.83;59.24;102939.25;5049955;28;20455;-82
2022/01/11 10:02:57;;;;;;;13.70;6.15;;;;;;;4.76;58.93;102936.41;5045454;28;20164;-82
2022/01/11 10:05:24;;;;;;;18.95;6.72;;;;;;;4.45;60.28;102944.66;5050051;28;20131;-82
2022/01/11 10:07:49;;;;;;;15.48;6.88;;;;;;;4.54;60.08;102946.69;5048409;28;20041;-81
2022/01/11 10:10:21;;;;;;;14.68;6.55;;;;;;;4.56;59.81;102945.06;5052926;28;20041;-82
2022/01/11 10:12:49;;;;;;;11.93;6.53;;;;;;;4.71;58.87;102936.22;5045823;28;20041;-82
2022/01/11 10:15:25;;;;;;;17.60;6.90;;;;;;;4.68;59.49;102937.78;5048900;28;20049;-82
2022/01/11 10:17:51;;;;;;;13.90;6.43;;;;;;;4.33;59.98;102939.91;5046191;28;20049;-81
2022/01/11 10:20:20;;;;;;;12.10;5.93;;;;;;;4.68;59.25;102933.53;5033716;28;20033;-82
2022/01/11 10:22:46;;;;;;;14.18;5.88;;;;;;;4.70;59.83;102933.59;5045166;28;20076;-82
2022/01/11 10:25:11;;;;;;;15.52;7.28;;;;;;;4.51;60.41;102934.59;5048383;28;20088;-82
2022/01/11 10:27:37;;;;;;;13.35;7.03;;;;;;;4.70;59.54;102925.88;5045652;28;20029;-82
2022/01/11 10:30:15;;;;;;;15.70;6.35;;;;;;;4.82;59.25;102923.75;5048111;28;20399;-82
2022/01/11 10:32:45;;;;;;;11.70;5.50;;;;;;;4.62;59.15;102928.16;5044744;28;20056;-82
2022/01/11 10:35:14;;;;;;;11.45;6.15;;;;;;;4.66;59.86;102921.44;5051069;28;20029;-82
2022/01/11 10:37:45;;;;;;;15.02;6.00;;;;;;;4.85;59.14;102921.31;5041654;28;20529;-82
2022/01/11 10:40:12;;;;;;;12.85;6.32;;;;;;;4.75;59.89;102925.22;5048923;28;21315;-82
2022/01/11 10:42:46;;;;;;;16.55;6.05;;;;;;;4.77;59.60;102925.28;5048864;28;20098;-82
2022/01/11 10:45:20;;;;;;;15.02;6.85;;;;;;;4.44;60.39;102932.59;5052055;28;20069;-82
2022/01/11 10:47:54;;;;;;;15.27;6.88;;;;;;;4.59;59.42;102929.72;5047409;28;20041;-82
2022/01/11 10:50:28;;;;;;;11.93;5.55;;;;;;;4.85;59.69;102929.03;5044436;28;20048;-81
2022/01/11 10:52:58;;;;;;;14.95;6.53;;;;;;;4.81;59.06;102927.16;5045357;28;20033;-82
2022/01/11 10:55:27;;;;;;;14.10;6.57;;;;;;;4.67;60.29;102942.06;5045699;28;20087;-82
2022/01/11 10:57:58;;;;;;;14.27;6.13;;;;;;;4.65;60.33;102935.09;5043812;28;20083;-82
2022/01/11 11:00:24;;;;;;;12.55;5.85;;;;;;;4.85;60.04;102935.03;5046620;28;20029;-82
2022/01/11 11:02:56;;;;;;;14.88;6.43;;;;;;;5.05;59.03;102937.47;5053541;28;20468;-82
2022/01/11 11:05:30;;;;;;;14.90;6.47;;;;;;;5.04;58.52;102933.13;5046382;28;20037;-81
2022/01/11 11:08:09;;;;;;;12.93;6.50;;;;;;;4.89;59.55;102938.59;5049066;28;20024;-82
2022/01/11 11:10:39;;;;;;;14.10;6.20;;;;;;;4.86;59.84;102947.09;5041393;28;20086;-82
2022/01/11 11:13:06;;;;;;;14.73;7.60;;;;;;;4.95;59.16;102937.94;5032970;28;20043;-82
2022/01/11 11:15:38;;;;;;;9.68;5.57;;;;;;;5.00;58.91;102942.44;5047079;28;20074;-82
2022/01/11 11:18:05;;;;;;;12.75;5.93;;;;;;;4.79;60.27;102945.09;5045512;28;20044;-82
2022/01/11 11:20:33;;;;;;;14.05;5.82;;;;;;;5.00;59.43;102939.00;5043721;28;20040;-82
2022/01/11 11:22:59;;;;;;;16.33;7.20;;;;;;;5.10;58.95;102939.38;5047753;28;20063;-82
2022/01/11 11:25:26;;;;;;;10.70;5.55;;;;;;;5.04;59.03;102936.59;5048277;28;20037;-82